sensor_id;sensor_type;location;lat;lon;timestamp;P1;durP1;ratioP1;P2;durP2;ratioP2
38529;SDS011;24301;54.332;48.386;2022-09-09T00:07:20;4.57;;;2.67;;
38529;SDS011;24301;54.332;48.386;2022-09-09T00:12:27;4.23;;;2.80;;
38529;SDS011;24301;54.332;48.386;2022-09-09T00:15:04;4.40;;;2.87;;
38529;SDS011;24301;54.332;48.386;2022-09-09T00:17:40;4.30;;;2.43;;
38529;SDS011;24301;54.332;48.386;2022-09-09T00:23:10;3.00;;;2.43;;
38529;SDS011;24301;54.332;48.386;2022-09-09T00:25:46;4.57;;;2.90;;
38529;SDS011;24301;54.332;48.386;2022-09-09T00:28:28;4.50;;;2.80;;
38529;SDS011;24301;54.332;48.386;2022-09-09T00:31:14;4.83;;;2.70;;
38529;SDS011;24301;54.332;48.386;2022-09-09T00:33:44;3.33;;;2.77;;
38529;SDS011;24301;54.332;48.386;2022-09-09T00:36:16;4.80;;;2.90;;
38529;SDS011;24301;54.332;48.386;2022-09-09T00:38:49;3.90;;;2.80;;
38529;SDS011;24301;54.332;48.386;2022-09-09T00:43:56;3.80;;;3.13;;
38529;SDS011;24301;54.332;48.386;2022-09-09T00:49:20;4.00;;;3.20;;
38529;SDS011;24301;54.332;48.386;2022-09-09T00:57:34;3.30;;;2.47;;
38529;SDS011;24301;54.332;48.386;2022-09-09T01:08:00;5.67;;;3.53;;
38529;SDS011;24301;54.332;48.386;2022-09-09T01:10:39;4.70;;;3.50;;
38529;SDS011;24301;54.332;48.386;2022-09-09T01:13:24;7.00;;;3.25;;
38529;SDS011;24301;54.332;48.386;2022-09-09T01:16:03;5.93;;;3.50;;
38529;SDS011;24301;54.332;48.386;2022-09-09T01:18:36;4.77;;;3.40;;
38529;SDS011;24301;54.332;48.386;2022-09-09T01:27:16;5.83;;;4.07;;
38529;SDS011;24301;54.332;48.386;2022-09-09T01:29:45;4.27;;;3.37;;
38529;SDS011;24301;54.332;48.386;2022-09-09T01:32:47;4.80;;;3.53;;
38529;SDS011;24301;54.332;48.386;2022-09-09T01:35:15;4.87;;;3.43;;
38529;SDS011;24301;54.332;48.386;2022-09-09T01:37:58;4.53;;;3.73;;
38529;SDS011;24301;54.332;48.386;2022-09-09T01:40:25;4.60;;;3.93;;
38529;SDS011;24301;54.332;48.386;2022-09-09T01:42:53;5.43;;;4.30;;
38529;SDS011;24301;54.332;48.386;2022-09-09T01:45:19;4.93;;;3.60;;
38529;SDS011;24301;54.332;48.386;2022-09-09T01:47:47;8.47;;;4.57;;
38529;SDS011;24301;54.332;48.386;2022-09-09T01:50:32;5.40;;;3.63;;
38529;SDS011;24301;54.332;48.386;2022-09-09T01:52:58;4.70;;;3.67;;
38529;SDS011;24301;54.332;48.386;2022-09-09T01:55:31;7.17;;;3.77;;
38529;SDS011;24301;54.332;48.386;2022-09-09T02:00:32;6.30;;;3.80;;
38529;SDS011;24301;54.332;48.386;2022-09-09T02:06:08;6.72;;;3.78;;
38529;SDS011;24301;54.332;48.386;2022-09-09T02:08:48;4.67;;;3.50;;
38529;SDS011;24301;54.332;48.386;2022-09-09T02:11:17;6.30;;;3.83;;
38529;SDS011;24301;54.332;48.386;2022-09-09T02:13:51;5.07;;;4.07;;
38529;SDS011;24301;54.332;48.386;2022-09-09T02:16:23;5.10;;;4.03;;
38529;SDS011;24301;54.332;48.386;2022-09-09T02:19:02;6.60;;;3.67;;
38529;SDS011;24301;54.332;48.386;2022-09-09T02:21:50;4.73;;;3.60;;
38529;SDS011;24301;54.332;48.386;2022-09-09T02:24:19;4.27;;;3.53;;
38529;SDS011;24301;54.332;48.386;2022-09-09T02:26:53;6.40;;;3.07;;
38529;SDS011;24301;54.332;48.386;2022-09-09T02:29:27;3.57;;;2.80;;
38529;SDS011;24301;54.332;48.386;2022-09-09T02:32:01;4.17;;;3.17;;
38529;SDS011;24301;54.332;48.386;2022-09-09T02:34:35;4.95;;;3.28;;
38529;SDS011;24301;54.332;48.386;2022-09-09T02:37:06;5.30;;;3.37;;
38529;SDS011;24301;54.332;48.386;2022-09-09T02:39:36;3.47;;;2.87;;
38529;SDS011;24301;54.332;48.386;2022-09-09T02:42:04;4.17;;;3.50;;
38529;SDS011;24301;54.332;48.386;2022-09-09T02:44:31;4.13;;;3.60;;
38529;SDS011;24301;54.332;48.386;2022-09-09T02:50:11;6.03;;;3.60;;
38529;SDS011;24301;54.332;48.386;2022-09-09T02:53:12;4.83;;;2.97;;
38529;SDS011;24301;54.332;48.386;2022-09-09T02:58:25;3.70;;;3.00;;
38529;SDS011;24301;54.332;48.386;2022-09-09T03:01:00;3.70;;;2.97;;
38529;SDS011;24301;54.332;48.386;2022-09-09T03:03:29;2.90;;;2.60;;
38529;SDS011;24301;54.332;48.386;2022-09-09T03:05:56;5.93;;;3.47;;
38529;SDS011;24301;54.332;48.386;2022-09-09T03:08:22;4.13;;;2.90;;
38529;SDS011;24301;54.332;48.386;2022-09-09T03:10:49;3.90;;;2.90;;
38529;SDS011;24301;54.332;48.386;2022-09-09T03:13:15;5.13;;;3.13;;
38529;SDS011;24301;54.332;48.386;2022-09-09T03:15:41;3.70;;;3.00;;
38529;SDS011;24301;54.332;48.386;2022-09-09T03:18:12;5.77;;;3.20;;
38529;SDS011;24301;54.332;48.386;2022-09-09T03:20:38;3.83;;;2.97;;
38529;SDS011;24301;54.332;48.386;2022-09-09T03:23:04;3.73;;;3.00;;
38529;SDS011;24301;54.332;48.386;2022-09-09T03:25:30;4.47;;;2.53;;
38529;SDS011;24301;54.332;48.386;2022-09-09T03:27:58;3.90;;;3.17;;
38529;SDS011;24301;54.332;48.386;2022-09-09T03:30:25;3.83;;;3.00;;
38529;SDS011;24301;54.332;48.386;2022-09-09T03:32:54;3.33;;;2.70;;
38529;SDS011;24301;54.332;48.386;2022-09-09T03:35:24;3.60;;;2.60;;
38529;SDS011;24301;54.332;48.386;2022-09-09T03:37:50;2.77;;;2.40;;
38529;SDS011;24301;54.332;48.386;2022-09-09T03:40:16;2.80;;;2.47;;
38529;SDS011;24301;54.332;48.386;2022-09-09T03:42:45;4.87;;;3.17;;
38529;SDS011;24301;54.332;48.386;2022-09-09T03:45:11;3.40;;;3.10;;
38529;SDS011;24301;54.332;48.386;2022-09-09T03:47:39;3.87;;;2.83;;
38529;SDS011;24301;54.332;48.386;2022-09-09T03:50:06;4.77;;;2.80;;
38529;SDS011;24301;54.332;48.386;2022-09-09T03:52:36;3.43;;;2.53;;
38529;SDS011;24301;54.332;48.386;2022-09-09T03:55:07;4.53;;;2.87;;
38529;SDS011;24301;54.332;48.386;2022-09-09T03:57:33;3.73;;;2.50;;
38529;SDS011;24301;54.332;48.386;2022-09-09T04:00:05;2.43;;;2.23;;
38529;SDS011;24301;54.332;48.386;2022-09-09T04:02:42;5.30;;;2.70;;
38529;SDS011;24301;54.332;48.386;2022-09-09T04:05:11;2.93;;;2.67;;
38529;SDS011;24301;54.332;48.386;2022-09-09T04:07:40;3.57;;;2.70;;
38529;SDS011;24301;54.332;48.386;2022-09-09T04:10:06;3.67;;;2.40;;
38529;SDS011;24301;54.332;48.386;2022-09-09T04:12:35;4.80;;;3.03;;
38529;SDS011;24301;54.332;48.386;2022-09-09T04:15:02;4.20;;;2.47;;
38529;SDS011;24301;54.332;48.386;2022-09-09T04:17:30;2.97;;;2.57;;
38529;SDS011;24301;54.332;48.386;2022-09-09T04:19:56;3.87;;;2.63;;
38529;SDS011;24301;54.332;48.386;2022-09-09T04:22:23;2.80;;;2.23;;
38529;SDS011;24301;54.332;48.386;2022-09-09T04:24:49;4.33;;;2.33;;
38529;SDS011;24301;54.332;48.386;2022-09-09T04:27:17;4.33;;;2.30;;
38529;SDS011;24301;54.332;48.386;2022-09-09T04:29:43;3.92;;;2.45;;
38529;SDS011;24301;54.332;48.386;2022-09-09T04:32:09;4.60;;;2.63;;
38529;SDS011;24301;54.332;48.386;2022-09-09T04:34:35;5.37;;;2.33;;
38529;SDS011;24301;54.332;48.386;2022-09-09T04:37:01;3.45;;;1.95;;
38529;SDS011;24301;54.332;48.386;2022-09-09T04:39:27;2.97;;;2.40;;
38529;SDS011;24301;54.332;48.386;2022-09-09T04:41:55;4.75;;;2.35;;
38529;SDS011;24301;54.332;48.386;2022-09-09T04:44:22;7.10;;;2.63;;
38529;SDS011;24301;54.332;48.386;2022-09-09T04:46:47;3.67;;;3.22;;
38529;SDS011;24301;54.332;48.386;2022-09-09T04:49:14;7.07;;;2.40;;
38529;SDS011;24301;54.332;48.386;2022-09-09T04:51:41;3.58;;;1.52;;
38529;SDS011;24301;54.332;48.386;2022-09-09T04:54:08;2.58;;;2.17;;
38529;SDS011;24301;54.332;48.386;2022-09-09T04:56:36;3.22;;;2.15;;
38529;SDS011;24301;54.332;48.386;2022-09-09T04:59:01;3.50;;;1.90;;
38529;SDS011;24301;54.332;48.386;2022-09-09T05:01:38;3.22;;;1.85;;
38529;SDS011;24301;54.332;48.386;2022-09-09T05:04:04;2.22;;;1.77;;
38529;SDS011;24301;54.332;48.386;2022-09-09T05:06:32;3.97;;;1.90;;
38529;SDS011;24301;54.332;48.386;2022-09-09T05:08:59;4.32;;;2.40;;
38529;SDS011;24301;54.332;48.386;2022-09-09T05:11:29;2.13;;;1.90;;
38529;SDS011;24301;54.332;48.386;2022-09-09T05:14:16;2.67;;;1.67;;
38529;SDS011;24301;54.332;48.386;2022-09-09T05:16:44;2.28;;;1.65;;
38529;SDS011;24301;54.332;48.386;2022-09-09T05:19:10;2.10;;;1.67;;
38529;SDS011;24301;54.332;48.386;2022-09-09T05:21:46;5.32;;;2.08;;
38529;SDS011;24301;54.332;48.386;2022-09-09T05:24:14;5.20;;;2.63;;
38529;SDS011;24301;54.332;48.386;2022-09-09T05:26:41;2.60;;;1.58;;
38529;SDS011;24301;54.332;48.386;2022-09-09T05:29:08;2.00;;;1.50;;
38529;SDS011;24301;54.332;48.386;2022-09-09T05:31:35;1.88;;;1.55;;
38529;SDS011;24301;54.332;48.386;2022-09-09T05:34:05;2.03;;;1.75;;
38529;SDS011;24301;54.332;48.386;2022-09-09T05:36:30;2.85;;;1.73;;
38529;SDS011;24301;54.332;48.386;2022-09-09T05:38:56;3.25;;;1.67;;
38529;SDS011;24301;54.332;48.386;2022-09-09T05:41:25;2.67;;;1.27;;
38529;SDS011;24301;54.332;48.386;2022-09-09T05:43:54;2.47;;;1.10;;
38529;SDS011;24301;54.332;48.386;2022-09-09T05:46:22;1.30;;;1.20;;
38529;SDS011;24301;54.332;48.386;2022-09-09T05:48:51;1.02;;;0.90;;
38529;SDS011;24301;54.332;48.386;2022-09-09T05:51:20;2.65;;;1.35;;
38529;SDS011;24301;54.332;48.386;2022-09-09T05:53:48;3.55;;;1.23;;
38529;SDS011;24301;54.332;48.386;2022-09-09T05:56:17;1.40;;;1.25;;
38529;SDS011;24301;54.332;48.386;2022-09-09T05:58:49;2.00;;;1.23;;
38529;SDS011;24301;54.332;48.386;2022-09-09T06:01:18;2.13;;;1.30;;
38529;SDS011;24301;54.332;48.386;2022-09-09T06:03:47;1.40;;;1.20;;
38529;SDS011;24301;54.332;48.386;2022-09-09T06:06:15;2.35;;;1.23;;
38529;SDS011;24301;54.332;48.386;2022-09-09T06:08:43;1.38;;;1.27;;
38529;SDS011;24301;54.332;48.386;2022-09-09T06:11:16;2.38;;;1.42;;
38529;SDS011;24301;54.332;48.386;2022-09-09T06:13:42;1.52;;;0.90;;
38529;SDS011;24301;54.332;48.386;2022-09-09T06:16:12;1.20;;;1.00;;
38529;SDS011;24301;54.332;48.386;2022-09-09T06:18:42;1.52;;;1.20;;
38529;SDS011;24301;54.332;48.386;2022-09-09T06:21:20;2.35;;;1.00;;
38529;SDS011;24301;54.332;48.386;2022-09-09T06:23:48;5.47;;;1.40;;
38529;SDS011;24301;54.332;48.386;2022-09-09T06:26:15;2.35;;;1.35;;
38529;SDS011;24301;54.332;48.386;2022-09-09T06:28:47;1.80;;;1.20;;
38529;SDS011;24301;54.332;48.386;2022-09-09T06:31:15;2.10;;;1.20;;
38529;SDS011;24301;54.332;48.386;2022-09-09T06:33:43;2.17;;;1.00;;
38529;SDS011;24301;54.332;48.386;2022-09-09T06:36:15;1.52;;;0.80;;
38529;SDS011;24301;54.332;48.386;2022-09-09T06:38:43;1.38;;;0.95;;
38529;SDS011;24301;54.332;48.386;2022-09-09T06:41:13;1.63;;;0.80;;
38529;SDS011;24301;54.332;48.386;2022-09-09T06:43:42;0.60;;;0.60;;
38529;SDS011;24301;54.332;48.386;2022-09-09T06:46:14;1.15;;;0.70;;
38529;SDS011;24301;54.332;48.386;2022-09-09T06:48:42;3.95;;;1.10;;
38529;SDS011;24301;54.332;48.386;2022-09-09T06:53:47;0.83;;;0.70;;
38529;SDS011;24301;54.332;48.386;2022-09-09T06:56:17;0.88;;;0.73;;
38529;SDS011;24301;54.332;48.386;2022-09-09T06:58:55;1.05;;;0.60;;
38529;SDS011;24301;54.332;48.386;2022-09-09T07:01:27;1.67;;;0.82;;
38529;SDS011;24301;54.332;48.386;2022-09-09T07:03:59;0.98;;;0.75;;
38529;SDS011;24301;54.332;48.386;2022-09-09T07:06:27;1.33;;;0.60;;
38529;SDS011;24301;54.332;48.386;2022-09-09T07:08:58;0.52;;;0.50;;
38529;SDS011;24301;54.332;48.386;2022-09-09T07:11:28;0.85;;;0.80;;
38529;SDS011;24301;54.332;48.386;2022-09-09T07:13:57;2.95;;;0.80;;
38529;SDS011;24301;54.332;48.386;2022-09-09T07:16:25;1.73;;;0.77;;
38529;SDS011;24301;54.332;48.386;2022-09-09T07:18:53;1.05;;;0.63;;
38529;SDS011;24301;54.332;48.386;2022-09-09T07:21:24;1.45;;;0.65;;
38529;SDS011;24301;54.332;48.386;2022-09-09T07:23:56;0.85;;;0.85;;
38529;SDS011;24301;54.332;48.386;2022-09-09T07:26:26;1.98;;;0.90;;
38529;SDS011;24301;54.332;48.386;2022-09-09T07:28:54;0.60;;;0.60;;
38529;SDS011;24301;54.332;48.386;2022-09-09T07:31:28;1.77;;;0.75;;
38529;SDS011;24301;54.332;48.386;2022-09-09T07:33:59;3.60;;;0.88;;
38529;SDS011;24301;54.332;48.386;2022-09-09T07:36:47;2.10;;;0.80;;
38529;SDS011;24301;54.332;48.386;2022-09-09T07:39:12;1.08;;;0.70;;
38529;SDS011;24301;54.332;48.386;2022-09-09T07:41:44;0.47;;;0.38;;
38529;SDS011;24301;54.332;48.386;2022-09-09T07:44:16;3.83;;;0.90;;
38529;SDS011;24301;54.332;48.386;2022-09-09T07:46:48;1.88;;;1.05;;
38529;SDS011;24301;54.332;48.386;2022-09-09T07:49:19;2.78;;;1.05;;
38529;SDS011;24301;54.332;48.386;2022-09-09T07:51:46;0.60;;;0.60;;
38529;SDS011;24301;54.332;48.386;2022-09-09T07:54:15;1.95;;;0.70;;
38529;SDS011;24301;54.332;48.386;2022-09-09T07:56:47;0.70;;;0.70;;
38529;SDS011;24301;54.332;48.386;2022-09-09T07:59:13;0.85;;;0.63;;
38529;SDS011;24301;54.332;48.386;2022-09-09T08:01:48;1.30;;;0.60;;
38529;SDS011;24301;54.332;48.386;2022-09-09T08:04:20;2.00;;;0.63;;
38529;SDS011;24301;54.332;48.386;2022-09-09T08:06:51;1.73;;;0.70;;
38529;SDS011;24301;54.332;48.386;2022-09-09T08:09:21;1.15;;;0.50;;
38529;SDS011;24301;54.332;48.386;2022-09-09T08:11:50;0.98;;;0.70;;
38529;SDS011;24301;54.332;48.386;2022-09-09T08:14:16;1.02;;;0.70;;
38529;SDS011;24301;54.332;48.386;2022-09-09T08:16:45;0.55;;;0.55;;
38529;SDS011;24301;54.332;48.386;2022-09-09T08:19:16;1.13;;;0.95;;
38529;SDS011;24301;54.332;48.386;2022-09-09T08:21:44;1.63;;;0.80;;
38529;SDS011;24301;54.332;48.386;2022-09-09T08:24:11;1.83;;;0.70;;
38529;SDS011;24301;54.332;48.386;2022-09-09T08:26:40;1.30;;;0.90;;
38529;SDS011;24301;54.332;48.386;2022-09-09T08:29:09;0.80;;;0.80;;
38529;SDS011;24301;54.332;48.386;2022-09-09T08:31:37;2.28;;;1.00;;
38529;SDS011;24301;54.332;48.386;2022-09-09T08:34:06;1.45;;;1.00;;
38529;SDS011;24301;54.332;48.386;2022-09-09T08:36:34;1.23;;;1.00;;
38529;SDS011;24301;54.332;48.386;2022-09-09T08:39:04;2.72;;;1.08;;
38529;SDS011;24301;54.332;48.386;2022-09-09T08:47:08;1.75;;;1.00;;
38529;SDS011;24301;54.332;48.386;2022-09-09T08:57:46;0.75;;;0.75;;
38529;SDS011;24301;54.332;48.386;2022-09-09T09:00:14;2.13;;;0.90;;
38529;SDS011;24301;54.332;48.386;2022-09-09T09:05:44;1.88;;;1.40;;
38529;SDS011;24301;54.332;48.386;2022-09-09T09:08:30;3.15;;;0.90;;
38529;SDS011;24301;54.332;48.386;2022-09-09T09:11:06;1.50;;;0.75;;
38529;SDS011;24301;54.332;48.386;2022-09-09T09:19:20;1.17;;;0.73;;
38529;SDS011;24301;54.332;48.386;2022-09-09T09:22:02;1.17;;;0.80;;
38529;SDS011;24301;54.332;48.386;2022-09-09T09:27:14;0.75;;;0.52;;
38529;SDS011;24301;54.332;48.386;2022-09-09T09:29:50;1.38;;;0.80;;
38529;SDS011;24301;54.332;48.386;2022-09-09T09:32:21;1.48;;;0.90;;
38529;SDS011;24301;54.332;48.386;2022-09-09T09:34:49;2.08;;;0.90;;
38529;SDS011;24301;54.332;48.386;2022-09-09T09:37:29;1.10;;;0.82;;
38529;SDS011;24301;54.332;48.386;2022-09-09T09:40:17;1.95;;;0.80;;
38529;SDS011;24301;54.332;48.386;2022-09-09T09:42:48;3.63;;;1.20;;
38529;SDS011;24301;54.332;48.386;2022-09-09T09:48:11;0.80;;;0.80;;
38529;SDS011;24301;54.332;48.386;2022-09-09T09:53:21;2.38;;;0.77;;
38529;SDS011;24301;54.332;48.386;2022-09-09T09:55:55;0.68;;;0.68;;
38529;SDS011;24301;54.332;48.386;2022-09-09T09:58:23;0.87;;;0.80;;
38529;SDS011;24301;54.332;48.386;2022-09-09T10:00:52;2.45;;;1.10;;
38529;SDS011;24301;54.332;48.386;2022-09-09T10:03:27;2.63;;;0.88;;
38529;SDS011;24301;54.332;48.386;2022-09-09T10:05:55;2.10;;;0.88;;
38529;SDS011;24301;54.332;48.386;2022-09-09T10:08:23;0.80;;;0.80;;
38529;SDS011;24301;54.332;48.386;2022-09-09T10:16:01;1.23;;;0.98;;
38529;SDS011;24301;54.332;48.386;2022-09-09T10:18:59;1.20;;;0.93;;
38529;SDS011;24301;54.332;48.386;2022-09-09T10:30:48;1.30;;;0.88;;
38529;SDS011;24301;54.332;48.386;2022-09-09T10:33:28;1.48;;;1.00;;
38529;SDS011;24301;54.332;48.386;2022-09-09T10:36:40;2.55;;;1.10;;
38529;SDS011;24301;54.332;48.386;2022-09-09T10:38:52;3.15;;;1.45;;
38529;SDS011;24301;54.332;48.386;2022-09-09T10:44:21;2.28;;;1.15;;
38529;SDS011;24301;54.332;48.386;2022-09-09T10:55:23;2.90;;;1.15;;
38529;SDS011;24301;54.332;48.386;2022-09-09T10:57:52;2.05;;;0.80;;
38529;SDS011;24301;54.332;48.386;2022-09-09T11:00:23;1.90;;;1.20;;
38529;SDS011;24301;54.332;48.386;2022-09-09T11:03:18;1.23;;;1.00;;
38529;SDS011;24301;54.332;48.386;2022-09-09T11:05:46;1.58;;;1.15;;
38529;SDS011;24301;54.332;48.386;2022-09-09T11:11:03;2.23;;;1.03;;
38529;SDS011;24301;54.332;48.386;2022-09-09T11:16:05;1.23;;;1.10;;
38529;SDS011;24301;54.332;48.386;2022-09-09T11:18:39;2.10;;;1.20;;
38529;SDS011;24301;54.332;48.386;2022-09-09T11:21:08;4.07;;;1.40;;
38529;SDS011;24301;54.332;48.386;2022-09-09T11:23:43;2.28;;;1.00;;
38529;SDS011;24301;54.332;48.386;2022-09-09T11:26:20;3.17;;;1.70;;
38529;SDS011;24301;54.332;48.386;2022-09-09T11:37:47;1.77;;;0.80;;
38529;SDS011;24301;54.332;48.386;2022-09-09T11:45:31;0.60;;;0.60;;
38529;SDS011;24301;54.332;48.386;2022-09-09T11:48:01;1.20;;;0.90;;
38529;SDS011;24301;54.332;48.386;2022-09-09T11:50:29;1.63;;;1.17;;
38529;SDS011;24301;54.332;48.386;2022-09-09T11:53:05;2.17;;;0.75;;
38529;SDS011;24301;54.332;48.386;2022-09-09T11:55:46;1.50;;;1.02;;
38529;SDS011;24301;54.332;48.386;2022-09-09T12:00:39;3.13;;;1.60;;
38529;SDS011;24301;54.332;48.386;2022-09-09T12:03:31;2.90;;;1.27;;
38529;SDS011;24301;54.332;48.386;2022-09-09T12:09:06;3.00;;;1.40;;
38529;SDS011;24301;54.332;48.386;2022-09-09T12:12:04;2.00;;;1.40;;
38529;SDS011;24301;54.332;48.386;2022-09-09T12:14:36;2.28;;;1.33;;
38529;SDS011;24301;54.332;48.386;2022-09-09T12:17:21;1.83;;;1.00;;
38529;SDS011;24301;54.332;48.386;2022-09-09T12:19:59;1.67;;;1.45;;
38529;SDS011;24301;54.332;48.386;2022-09-09T12:25:30;4.60;;;1.30;;
38529;SDS011;24301;54.332;48.386;2022-09-09T12:28:00;4.87;;;1.40;;
38529;SDS011;24301;54.332;48.386;2022-09-09T12:31:04;4.60;;;1.23;;
38529;SDS011;24301;54.332;48.386;2022-09-09T12:33:35;3.10;;;1.48;;
38529;SDS011;24301;54.332;48.386;2022-09-09T12:36:18;2.30;;;1.40;;
38529;SDS011;24301;54.332;48.386;2022-09-09T12:38:47;4.33;;;1.73;;
38529;SDS011;24301;54.332;48.386;2022-09-09T12:41:18;3.83;;;1.25;;
38529;SDS011;24301;54.332;48.386;2022-09-09T12:43:46;2.17;;;1.27;;
38529;SDS011;24301;54.332;48.386;2022-09-09T12:46:16;1.10;;;0.98;;
38529;SDS011;24301;54.332;48.386;2022-09-09T12:48:57;1.10;;;1.00;;
38529;SDS011;24301;54.332;48.386;2022-09-09T12:51:27;2.20;;;1.47;;
38529;SDS011;24301;54.332;48.386;2022-09-09T12:53:56;2.78;;;1.48;;
38529;SDS011;24301;54.332;48.386;2022-09-09T12:56:32;2.53;;;1.67;;
38529;SDS011;24301;54.332;48.386;2022-09-09T12:58:58;3.87;;;1.67;;
38529;SDS011;24301;54.332;48.386;2022-09-09T13:01:30;6.17;;;1.40;;
38529;SDS011;24301;54.332;48.386;2022-09-09T13:03:58;1.50;;;1.40;;
38529;SDS011;24301;54.332;48.386;2022-09-09T13:06:31;2.73;;;1.40;;
38529;SDS011;24301;54.332;48.386;2022-09-09T13:08:58;3.30;;;1.40;;
38529;SDS011;24301;54.332;48.386;2022-09-09T13:11:26;3.05;;;1.33;;
38529;SDS011;24301;54.332;48.386;2022-09-09T13:14:15;1.65;;;1.35;;
38529;SDS011;24301;54.332;48.386;2022-09-09T13:16:54;2.30;;;1.10;;
38529;SDS011;24301;54.332;48.386;2022-09-09T13:19:22;1.80;;;1.27;;
38529;SDS011;24301;54.332;48.386;2022-09-09T13:21:53;2.67;;;1.40;;
38529;SDS011;24301;54.332;48.386;2022-09-09T13:29:31;5.10;;;1.08;;
38529;SDS011;24301;54.332;48.386;2022-09-09T13:32:15;1.57;;;0.87;;
38529;SDS011;24301;54.332;48.386;2022-09-09T13:35:03;1.13;;;1.03;;
38529;SDS011;24301;54.332;48.386;2022-09-09T13:40:02;1.70;;;1.40;;
38529;SDS011;24301;54.332;48.386;2022-09-09T13:42:32;5.82;;;1.70;;
38529;SDS011;24301;54.332;48.386;2022-09-09T13:45:04;1.48;;;1.23;;
38529;SDS011;24301;54.332;48.386;2022-09-09T13:47:34;1.05;;;0.98;;
38529;SDS011;24301;54.332;48.386;2022-09-09T13:52:54;2.77;;;1.57;;
38529;SDS011;24301;54.332;48.386;2022-09-09T13:55:24;2.30;;;1.13;;
38529;SDS011;24301;54.332;48.386;2022-09-09T13:58:01;1.13;;;1.03;;
38529;SDS011;24301;54.332;48.386;2022-09-09T14:00:31;1.33;;;1.10;;
38529;SDS011;24301;54.332;48.386;2022-09-09T14:02:58;2.58;;;1.55;;
38529;SDS011;24301;54.332;48.386;2022-09-09T14:05:27;5.30;;;2.58;;
38529;SDS011;24301;54.332;48.386;2022-09-09T14:07:55;3.65;;;1.60;;
38529;SDS011;24301;54.332;48.386;2022-09-09T14:10:22;3.43;;;1.30;;
38529;SDS011;24301;54.332;48.386;2022-09-09T14:12:48;1.47;;;1.20;;
38529;SDS011;24301;54.332;48.386;2022-09-09T14:15:14;2.17;;;1.20;;
38529;SDS011;24301;54.332;48.386;2022-09-09T14:17:40;5.00;;;1.20;;
38529;SDS011;24301;54.332;48.386;2022-09-09T14:20:06;3.80;;;1.70;;
38529;SDS011;24301;54.332;48.386;2022-09-09T14:22:33;3.37;;;1.50;;
38529;SDS011;24301;54.332;48.386;2022-09-09T14:24:59;3.67;;;2.07;;
38529;SDS011;24301;54.332;48.386;2022-09-09T14:27:25;3.87;;;1.90;;
38529;SDS011;24301;54.332;48.386;2022-09-09T14:29:52;3.00;;;1.50;;
38529;SDS011;24301;54.332;48.386;2022-09-09T14:32:18;3.30;;;1.60;;
38529;SDS011;24301;54.332;48.386;2022-09-09T14:34:44;2.47;;;2.00;;
38529;SDS011;24301;54.332;48.386;2022-09-09T14:37:10;1.73;;;1.30;;
38529;SDS011;24301;54.332;48.386;2022-09-09T14:39:36;1.45;;;1.30;;
38529;SDS011;24301;54.332;48.386;2022-09-09T14:42:02;2.47;;;1.43;;
38529;SDS011;24301;54.332;48.386;2022-09-09T14:44:28;3.00;;;1.70;;
38529;SDS011;24301;54.332;48.386;2022-09-09T14:46:54;1.93;;;1.53;;
38529;SDS011;24301;54.332;48.386;2022-09-09T14:49:20;3.27;;;1.20;;
38529;SDS011;24301;54.332;48.386;2022-09-09T14:51:47;1.50;;;1.30;;
38529;SDS011;24301;54.332;48.386;2022-09-09T14:54:13;2.07;;;1.50;;
38529;SDS011;24301;54.332;48.386;2022-09-09T14:56:40;4.00;;;1.70;;
38529;SDS011;24301;54.332;48.386;2022-09-09T14:59:05;1.67;;;1.57;;
38529;SDS011;24301;54.332;48.386;2022-09-09T15:01:31;1.40;;;1.20;;
38529;SDS011;24301;54.332;48.386;2022-09-09T15:03:58;4.53;;;2.67;;
38529;SDS011;24301;54.332;48.386;2022-09-09T15:06:29;7.40;;;2.37;;
38529;SDS011;24301;54.332;48.386;2022-09-09T15:08:58;5.57;;;1.57;;
38529;SDS011;24301;54.332;48.386;2022-09-09T15:11:26;3.30;;;1.47;;
38529;SDS011;24301;54.332;48.386;2022-09-09T15:13:53;3.33;;;1.47;;
38529;SDS011;24301;54.332;48.386;2022-09-09T15:16:20;3.37;;;1.70;;
38529;SDS011;24301;54.332;48.386;2022-09-09T15:18:50;1.87;;;1.70;;
38529;SDS011;24301;54.332;48.386;2022-09-09T15:21:19;2.00;;;1.37;;
38529;SDS011;24301;54.332;48.386;2022-09-09T15:23:46;3.00;;;1.60;;
38529;SDS011;24301;54.332;48.386;2022-09-09T15:26:13;3.73;;;1.50;;
38529;SDS011;24301;54.332;48.386;2022-09-09T15:28:40;3.70;;;1.67;;
38529;SDS011;24301;54.332;48.386;2022-09-09T15:31:12;2.50;;;1.50;;
38529;SDS011;24301;54.332;48.386;2022-09-09T15:33:40;2.73;;;1.80;;
38529;SDS011;24301;54.332;48.386;2022-09-09T15:36:13;2.53;;;1.40;;
38529;SDS011;24301;54.332;48.386;2022-09-09T15:38:44;1.80;;;1.50;;
38529;SDS011;24301;54.332;48.386;2022-09-09T15:41:11;2.67;;;1.40;;
38529;SDS011;24301;54.332;48.386;2022-09-09T15:43:38;3.03;;;1.47;;
38529;SDS011;24301;54.332;48.386;2022-09-09T15:51:21;2.80;;;1.40;;
38529;SDS011;24301;54.332;48.386;2022-09-09T15:53:48;1.90;;;1.23;;
38529;SDS011;24301;54.332;48.386;2022-09-09T15:56:20;1.97;;;1.50;;
38529;SDS011;24301;54.332;48.386;2022-09-09T15:58:46;3.83;;;1.70;;
38529;SDS011;24301;54.332;48.386;2022-09-09T16:01:12;2.33;;;1.27;;
38529;SDS011;24301;54.332;48.386;2022-09-09T16:03:38;2.83;;;1.83;;
38529;SDS011;24301;54.332;48.386;2022-09-09T16:08:39;2.23;;;1.63;;
38529;SDS011;24301;54.332;48.386;2022-09-09T16:11:07;4.67;;;2.43;;
38529;SDS011;24301;54.332;48.386;2022-09-09T16:13:40;4.00;;;2.00;;
38529;SDS011;24301;54.332;48.386;2022-09-09T16:16:07;3.10;;;2.03;;
38529;SDS011;24301;54.332;48.386;2022-09-09T16:18:36;2.10;;;1.70;;
38529;SDS011;24301;54.332;48.386;2022-09-09T16:21:08;1.93;;;1.30;;
38529;SDS011;24301;54.332;48.386;2022-09-09T16:23:41;1.30;;;0.97;;
38529;SDS011;24301;54.332;48.386;2022-09-09T16:26:08;3.97;;;1.50;;
38529;SDS011;24301;54.332;48.386;2022-09-09T16:28:37;1.73;;;1.27;;
38529;SDS011;24301;54.332;48.386;2022-09-09T16:31:06;1.80;;;1.40;;
38529;SDS011;24301;54.332;48.386;2022-09-09T16:33:33;3.20;;;1.80;;
38529;SDS011;24301;54.332;48.386;2022-09-09T16:36:04;2.77;;;1.37;;
38529;SDS011;24301;54.332;48.386;2022-09-09T16:38:35;1.97;;;1.30;;
38529;SDS011;24301;54.332;48.386;2022-09-09T16:41:03;1.53;;;1.27;;
38529;SDS011;24301;54.332;48.386;2022-09-09T16:43:33;2.03;;;1.40;;
38529;SDS011;24301;54.332;48.386;2022-09-09T16:46:01;3.03;;;1.63;;
38529;SDS011;24301;54.332;48.386;2022-09-09T16:48:48;1.70;;;1.33;;
38529;SDS011;24301;54.332;48.386;2022-09-09T16:53:45;3.13;;;1.80;;
38529;SDS011;24301;54.332;48.386;2022-09-09T16:56:16;1.93;;;1.40;;
38529;SDS011;24301;54.332;48.386;2022-09-09T16:58:48;3.37;;;1.53;;
38529;SDS011;24301;54.332;48.386;2022-09-09T17:01:15;2.20;;;1.47;;
38529;SDS011;24301;54.332;48.386;2022-09-09T17:03:41;1.60;;;1.40;;
38529;SDS011;24301;54.332;48.386;2022-09-09T17:06:14;2.23;;;1.60;;
38529;SDS011;24301;54.332;48.386;2022-09-09T17:08:40;1.60;;;1.50;;
38529;SDS011;24301;54.332;48.386;2022-09-09T17:11:17;2.87;;;1.37;;
38529;SDS011;24301;54.332;48.386;2022-09-09T17:13:44;2.13;;;1.53;;
38529;SDS011;24301;54.332;48.386;2022-09-09T17:16:12;2.33;;;1.73;;
38529;SDS011;24301;54.332;48.386;2022-09-09T17:18:40;2.93;;;2.20;;
38529;SDS011;24301;54.332;48.386;2022-09-09T17:21:11;2.30;;;1.50;;
38529;SDS011;24301;54.332;48.386;2022-09-09T17:26:25;2.00;;;1.43;;
38529;SDS011;24301;54.332;48.386;2022-09-09T17:28:54;2.07;;;1.37;;
38529;SDS011;24301;54.332;48.386;2022-09-09T17:31:21;3.70;;;1.73;;
38529;SDS011;24301;54.332;48.386;2022-09-09T17:33:48;4.50;;;1.87;;